createdAt,value
2023-04-29T00:00:54.367Z,88278.00
2023-04-29T00:01:54.385Z,88278.00
2023-04-29T00:02:54.447Z,88280.00
2023-04-29T00:03:54.735Z,88278.00
2023-04-29T00:04:54.564Z,88282.00
2023-04-29T00:05:54.432Z,88282.00
2023-04-29T00:06:54.340Z,88280.00
2023-04-29T00:07:54.319Z,88282.00
2023-04-29T00:08:54.290Z,88282.00
2023-04-29T00:09:54.484Z,88283.00
2023-04-29T00:10:54.263Z,88285.00
2023-04-29T00:11:54.233Z,88287.00
2023-04-29T00:12:54.250Z,88289.00
2023-04-29T00:13:54.208Z,88289.00
2023-04-29T00:14:54.197Z,88285.00
2023-04-29T00:15:54.181Z,88289.00
2023-04-29T00:16:54.193Z,88285.00
2023-04-29T00:17:54.345Z,88283.00
2023-04-29T00:18:54.114Z,88283.00
2023-04-29T00:19:54.281Z,88285.00
2023-04-29T00:20:54.099Z,88285.00
2023-04-29T00:21:54.051Z,88285.00
2023-04-29T00:22:54.042Z,88283.00
2023-04-29T00:23:54.006Z,88280.00
2023-04-29T00:24:54.107Z,88278.00
2023-04-29T00:25:53.993Z,88274.00
2023-04-29T00:26:53.938Z,88268.00
2023-04-29T00:27:53.909Z,88264.00
2023-04-29T00:28:53.882Z,88260.00
2023-04-29T00:29:54.126Z,88256.00
2023-04-29T00:30:53.907Z,88256.00
2023-04-29T00:31:53.830Z,88254.00
2023-04-29T00:32:53.893Z,88254.00
2023-04-29T00:33:53.792Z,88252.00
2023-04-29T00:34:53.792Z,88252.00
2023-04-29T00:35:53.760Z,88250.00
2023-04-29T00:36:53.735Z,88248.00
2023-04-29T00:37:53.742Z,88246.00
2023-04-29T00:38:53.704Z,88246.00
2023-04-29T00:39:53.863Z,88248.00
2023-04-29T00:40:53.696Z,88250.00
2023-04-29T00:41:53.676Z,88252.00
2023-04-29T00:42:53.673Z,88250.00
2023-04-29T00:43:53.684Z,88250.00
2023-04-29T00:44:53.666Z,88250.00
2023-04-29T00:45:53.657Z,88250.00
2023-04-29T00:46:53.648Z,88252.00
2023-04-29T00:47:53.656Z,88250.00
2023-04-29T00:48:53.619Z,88252.00
2023-04-29T00:49:54.050Z,88252.00
2023-04-29T00:50:53.611Z,88250.00
2023-04-29T00:51:53.587Z,88250.00
2023-04-29T00:52:53.571Z,88252.00
2023-04-29T00:53:53.553Z,88250.00
2023-04-29T00:54:53.554Z,88248.00
2023-04-29T00:55:53.599Z,88244.00
2023-04-29T00:56:53.544Z,88240.00
2023-04-29T00:57:53.532Z,88238.00
2023-04-29T00:58:53.528Z,88240.00
2023-04-29T00:59:53.716Z,88242.00
2023-04-29T01:00:55.247Z,88244.00
2023-04-29T01:01:53.601Z,88244.00
2023-04-29T01:02:53.553Z,88246.00
2023-04-29T01:03:53.777Z,88246.00
2023-04-29T01:04:53.659Z,88246.00
2023-04-29T01:05:53.440Z,88246.00
2023-04-29T01:06:53.435Z,88248.00
2023-04-29T01:07:53.411Z,88248.00
2023-04-29T01:08:53.406Z,88250.00
2023-04-29T01:09:53.654Z,88252.00
2023-04-29T01:10:53.379Z,88252.00
2023-04-29T01:11:53.405Z,88252.00
2023-04-29T01:12:53.364Z,88250.00
2023-04-29T01:13:53.321Z,88246.00
2023-04-29T01:14:53.311Z,88246.00
2023-04-29T01:15:53.329Z,88246.00
2023-04-29T01:16:53.282Z,88250.00
2023-04-29T01:17:53.274Z,88252.00
2023-04-29T01:18:53.239Z,88254.00
2023-04-29T01:19:53.561Z,88256.00
2023-04-29T01:20:53.204Z,88260.00
2023-04-29T01:21:53.191Z,88264.00
2023-04-29T01:22:53.167Z,88270.00
2023-04-29T01:23:53.137Z,88272.00
2023-04-29T01:24:53.122Z,88276.00
2023-04-29T01:25:53.090Z,88270.00
2023-04-29T01:26:53.094Z,88270.00
2023-04-29T01:27:53.064Z,88270.00
2023-04-29T01:28:53.099Z,88274.00
2023-04-29T01:29:53.349Z,88278.00
2023-04-29T01:30:52.993Z,88276.00
2023-04-29T01:31:53.195Z,88274.00
2023-04-29T01:32:53.015Z,88270.00
2023-04-29T01:33:52.943Z,88266.00
2023-04-29T01:34:52.922Z,88266.00
2023-04-29T01:35:52.912Z,88266.00
2023-04-29T01:36:52.885Z,88268.00
2023-04-29T01:37:52.862Z,88272.00
2023-04-29T01:38:52.839Z,88276.00
2023-04-29T01:39:53.018Z,88278.00
2023-04-29T01:40:52.813Z,88274.00
2023-04-29T01:41:52.808Z,88270.00
2023-04-29T01:42:52.787Z,88264.00
2023-04-29T01:43:52.754Z,88258.00
2023-04-29T01:44:52.751Z,88254.00
2023-04-29T01:45:52.724Z,88254.00
2023-04-29T01:46:52.789Z,88252.00
2023-04-29T01:47:52.697Z,88254.00
2023-04-29T01:48:52.669Z,88258.00
2023-04-29T01:49:53.013Z,88256.00
2023-04-29T01:50:52.631Z,88254.00
2023-04-29T01:51:52.677Z,88252.00
2023-04-29T01:52:52.600Z,88248.00
2023-04-29T01:53:52.592Z,88246.00
2023-04-29T01:54:52.571Z,88248.00
2023-04-29T01:55:52.558Z,88250.00
2023-04-29T01:56:52.537Z,88252.00
2023-04-29T01:57:52.527Z,88256.00
2023-04-29T01:58:52.496Z,88256.00
2023-04-29T01:59:52.708Z,88256.00
2023-04-29T02:00:52.487Z,88254.00
2023-04-29T02:01:52.467Z,88254.00
2023-04-29T02:02:52.528Z,88246.00
2023-04-29T02:03:52.717Z,88248.00
2023-04-29T02:04:52.461Z,88250.00
2023-04-29T02:05:52.414Z,88252.00
2023-04-29T02:06:52.403Z,88250.00
2023-04-29T02:07:52.374Z,88248.00
2023-04-29T02:08:52.351Z,88248.00
2023-04-29T02:09:52.609Z,88244.00
2023-04-29T02:10:52.315Z,88242.00
2023-04-29T02:11:52.294Z,88240.00
2023-04-29T02:12:52.283Z,88238.00
2023-04-29T02:13:52.254Z,88238.00
2023-04-29T02:14:52.249Z,88238.00
2023-04-29T02:15:52.307Z,88236.00
2023-04-29T02:16:52.227Z,88236.00
2023-04-29T02:17:52.218Z,88238.00
2023-04-29T02:18:52.179Z,88234.00
2023-04-29T02:19:52.370Z,88231.00
2023-04-29T02:20:52.161Z,88229.00
2023-04-29T02:21:52.149Z,88223.00
2023-04-29T02:22:52.130Z,88225.00
2023-04-29T02:23:52.126Z,88223.00
2023-04-29T02:24:52.077Z,88223.00
2023-04-29T02:25:52.056Z,88221.00
2023-04-29T02:26:52.040Z,88225.00
2023-04-29T02:27:52.060Z,88229.00
2023-04-29T02:28:52.008Z,88229.00
2023-04-29T02:29:52.232Z,88225.00
2023-04-29T02:30:52.014Z,88225.00
2023-04-29T02:31:51.989Z,88223.00
2023-04-29T02:32:51.986Z,88219.00
2023-04-29T02:33:51.937Z,88217.00
2023-04-29T02:34:51.919Z,88217.00
2023-04-29T02:35:51.902Z,88219.00
2023-04-29T02:36:51.893Z,88219.00
2023-04-29T02:37:51.870Z,88221.00
2023-04-29T02:38:51.857Z,88223.00
2023-04-29T02:39:52.069Z,88225.00
2023-04-29T02:40:51.846Z,88227.00
2023-04-29T02:41:52.309Z,88229.00
2023-04-29T02:42:51.805Z,88229.00
2023-04-29T02:43:51.798Z,88225.00
2023-04-29T02:44:51.832Z,88225.00
2023-04-29T02:45:51.844Z,88227.00
2023-04-29T02:46:51.798Z,88227.00
2023-04-29T02:47:51.848Z,88229.00
2023-04-29T02:48:51.794Z,88227.00
2023-04-29T02:49:51.935Z,88225.00
2023-04-29T02:50:51.769Z,88223.00
2023-04-29T02:51:51.763Z,88219.00
2023-04-29T02:52:51.754Z,88219.00
2023-04-29T02:53:51.749Z,88223.00
2023-04-29T02:54:51.746Z,88223.00
2023-04-29T02:55:51.740Z,88223.00
2023-04-29T02:56:51.764Z,88223.00
2023-04-29T02:57:51.873Z,88221.00
2023-04-29T02:58:51.740Z,88223.00
2023-04-29T02:59:51.945Z,88225.00
2023-04-29T03:00:51.789Z,88231.00
2023-04-29T03:01:51.724Z,88231.00
2023-04-29T03:02:51.828Z,88231.00
2023-04-29T03:03:51.942Z,88232.00
2023-04-29T03:04:51.698Z,88232.00
2023-04-29T03:05:51.692Z,88234.00
2023-04-29T03:06:51.687Z,88234.00
2023-04-29T03:07:51.669Z,88234.00
2023-04-29T03:08:51.663Z,88234.00
2023-04-29T03:09:51.807Z,88234.00
2023-04-29T03:10:51.648Z,88229.00
2023-04-29T03:11:51.641Z,88227.00
2023-04-29T03:12:51.639Z,88229.00
2023-04-29T03:13:51.633Z,88227.00
2023-04-29T03:14:51.610Z,88229.00
2023-04-29T03:15:51.662Z,88229.00
2023-04-29T03:16:51.684Z,88223.00
2023-04-29T03:17:51.643Z,88225.00
2023-04-29T03:18:51.584Z,88221.00
2023-04-29T03:19:51.835Z,88221.00
2023-04-29T03:20:51.553Z,88223.00
2023-04-29T03:21:53.732Z,88221.00
2023-04-29T03:22:51.531Z,88219.00
2023-04-29T03:23:51.519Z,88219.00
2023-04-29T03:24:51.509Z,88219.00
2023-04-29T03:25:51.503Z,88219.00
2023-04-29T03:26:51.481Z,88217.00
2023-04-29T03:27:51.465Z,88217.00
2023-04-29T03:28:51.446Z,88219.00
2023-04-29T03:29:51.625Z,88217.00
2023-04-29T03:30:51.417Z,88219.00
2023-04-29T03:31:51.544Z,88221.00
2023-04-29T03:32:51.447Z,88225.00
2023-04-29T03:33:51.351Z,88225.00
2023-04-29T03:34:51.338Z,88221.00
2023-04-29T03:35:51.320Z,88221.00
2023-04-29T03:36:51.323Z,88219.00
2023-04-29T03:37:51.300Z,88213.00
2023-04-29T03:38:51.296Z,88206.00
2023-04-29T03:39:51.452Z,88202.00
2023-04-29T03:40:51.259Z,88204.00
2023-04-29T03:41:51.259Z,88204.00
2023-04-29T03:42:51.244Z,88206.00
2023-04-29T03:43:51.224Z,88206.00
2023-04-29T03:44:51.221Z,88213.00
2023-04-29T03:45:51.228Z,88217.00
2023-04-29T03:46:51.201Z,88217.00
2023-04-29T03:47:51.265Z,88221.00
2023-04-29T03:48:51.209Z,88221.00
2023-04-29T03:49:51.356Z,88225.00
2023-04-29T03:50:51.170Z,88217.00
2023-04-29T03:51:51.166Z,88219.00
2023-04-29T03:52:51.146Z,88223.00
2023-04-29T03:53:51.134Z,88221.00
2023-04-29T03:54:51.139Z,88223.00
2023-04-29T03:55:51.110Z,88221.00
2023-04-29T03:56:51.124Z,88221.00
2023-04-29T03:57:51.101Z,88217.00
2023-04-29T03:58:51.083Z,88215.00
2023-04-29T03:59:51.412Z,88213.00
2023-04-29T04:00:51.063Z,88206.00
2023-04-29T04:01:51.058Z,88213.00
2023-04-29T04:02:51.112Z,88213.00
2023-04-29T04:03:51.098Z,88217.00
2023-04-29T04:04:51.123Z,88219.00
2023-04-29T04:05:51.028Z,88225.00
2023-04-29T04:06:51.040Z,88227.00
2023-04-29T04:07:51.083Z,88223.00
2023-04-29T04:08:51.023Z,88221.00
2023-04-29T04:09:51.316Z,88217.00
2023-04-29T04:10:51.029Z,88215.00
2023-04-29T04:11:51.032Z,88215.00
2023-04-29T04:12:51.070Z,88213.00
2023-04-29T04:13:51.043Z,88213.00
2023-04-29T04:14:51.038Z,88215.00
2023-04-29T04:15:51.073Z,88217.00
2023-04-29T04:16:51.026Z,88219.00
2023-04-29T04:17:51.034Z,88221.00
2023-04-29T04:18:51.004Z,88219.00
2023-04-29T04:19:51.258Z,88215.00
2023-04-29T04:20:50.965Z,88215.00
2023-04-29T04:21:50.945Z,88215.00
2023-04-29T04:22:50.921Z,88213.00
2023-04-29T04:23:50.909Z,88206.00
2023-04-29T04:24:50.898Z,88204.00
2023-04-29T04:25:50.887Z,88202.00
2023-04-29T04:26:50.874Z,88202.00
2023-04-29T04:27:50.857Z,88200.00
2023-04-29T04:28:50.845Z,88202.00
2023-04-29T04:29:50.999Z,88202.00
2023-04-29T04:30:50.811Z,88206.00
2023-04-29T04:31:50.824Z,88213.00
2023-04-29T04:32:50.797Z,88206.00
2023-04-29T04:33:50.765Z,88213.00
2023-04-29T04:34:50.754Z,88206.00
2023-04-29T04:35:50.731Z,88215.00
2023-04-29T04:36:50.736Z,88215.00
2023-04-29T04:37:50.737Z,88217.00
2023-04-29T04:38:50.703Z,88221.00
2023-04-29T04:39:50.882Z,88221.00
2023-04-29T04:40:50.725Z,88223.00
2023-04-29T04:41:50.686Z,88223.00
2023-04-29T04:42:50.726Z,88225.00
2023-04-29T04:43:50.651Z,88223.00
2023-04-29T04:44:50.658Z,88225.00
2023-04-29T04:45:50.693Z,88223.00
2023-04-29T04:46:50.655Z,88223.00
2023-04-29T04:47:50.675Z,88221.00
2023-04-29T04:48:50.612Z,88223.00
2023-04-29T04:49:50.657Z,88223.00
2023-04-29T04:50:50.599Z,88225.00
2023-04-29T04:51:50.581Z,88227.00
2023-04-29T04:52:50.587Z,88227.00
2023-04-29T04:53:50.574Z,88225.00
2023-04-29T04:54:50.614Z,88227.00
2023-04-29T04:55:50.555Z,88227.00
2023-04-29T04:56:50.558Z,88221.00
2023-04-29T04:57:50.547Z,88223.00
2023-04-29T04:58:50.540Z,88219.00
2023-04-29T04:59:50.616Z,88221.00
2023-04-29T05:00:50.545Z,88219.00
2023-04-29T05:01:50.520Z,88221.00
2023-04-29T05:02:50.658Z,88223.00
2023-04-29T05:03:50.564Z,88223.00
2023-04-29T05:04:50.561Z,88225.00
2023-04-29T05:05:50.481Z,88227.00
2023-04-29T05:06:50.468Z,88227.00
2023-04-29T05:07:50.467Z,88229.00
2023-04-29T05:08:50.437Z,88225.00
2023-04-29T05:09:50.575Z,88227.00
2023-04-29T05:10:50.427Z,88227.00
2023-04-29T05:11:50.418Z,88232.00
2023-04-29T05:12:50.401Z,88231.00
2023-04-29T05:13:50.382Z,88231.00
2023-04-29T05:14:50.385Z,88229.00
2023-04-29T05:15:50.382Z,88229.00
2023-04-29T05:16:50.401Z,88225.00
2023-04-29T05:17:50.403Z,88229.00
2023-04-29T05:18:50.356Z,88227.00
2023-04-29T05:19:50.573Z,88231.00
2023-04-29T05:20:50.340Z,88231.00
2023-04-29T05:21:50.344Z,88234.00
2023-04-29T05:22:50.309Z,88232.00
2023-04-29T05:23:50.311Z,88231.00
2023-04-29T05:24:50.281Z,88232.00
2023-04-29T05:25:50.271Z,88234.00
2023-04-29T05:26:50.250Z,88236.00
2023-04-29T05:27:50.269Z,88238.00
2023-04-29T05:28:50.252Z,88236.00
2023-04-29T05:29:50.277Z,88238.00
2023-04-29T05:30:50.231Z,88240.00
2023-04-29T05:31:50.220Z,88242.00
2023-04-29T05:32:50.302Z,88242.00
2023-04-29T05:33:50.202Z,88240.00
2023-04-29T05:34:50.175Z,88240.00
2023-04-29T05:35:50.149Z,88240.00
2023-04-29T05:36:50.137Z,88240.00
2023-04-29T05:37:50.141Z,88242.00
2023-04-29T05:38:50.115Z,88246.00
2023-04-29T05:39:50.236Z,88246.00
2023-04-29T05:40:50.129Z,88242.00
2023-04-29T05:41:50.080Z,88242.00
2023-04-29T05:42:50.081Z,88244.00
2023-04-29T05:43:50.051Z,88244.00
2023-04-29T05:44:50.048Z,88238.00
2023-04-29T05:45:50.073Z,88234.00
2023-04-29T05:46:50.038Z,88234.00
2023-04-29T05:47:50.093Z,88234.00
2023-04-29T05:48:50.024Z,88234.00
2023-04-29T05:49:50.075Z,88234.00
2023-04-29T05:50:50.014Z,88236.00
2023-04-29T05:51:50.012Z,88238.00
2023-04-29T05:52:50.029Z,88238.00
2023-04-29T05:53:49.999Z,88242.00
2023-04-29T05:54:49.993Z,88242.00
2023-04-29T05:55:51.244Z,88240.00
2023-04-29T05:56:49.985Z,88240.00
2023-04-29T05:57:49.981Z,88240.00
2023-04-29T05:58:49.974Z,88242.00
2023-04-29T05:59:50.009Z,88244.00
2023-04-29T06:00:49.953Z,88246.00
2023-04-29T06:01:49.932Z,88248.00
2023-04-29T06:02:57.971Z,88252.00
2023-04-29T06:03:51.031Z,88250.00
2023-04-29T06:04:50.028Z,88254.00
2023-04-29T06:05:50.398Z,88252.00
2023-04-29T06:06:49.849Z,88254.00
2023-04-29T06:07:49.841Z,88254.00
2023-04-29T06:08:49.821Z,88252.00
2023-04-29T06:09:49.819Z,88250.00
2023-04-29T06:10:49.775Z,88248.00
2023-04-29T06:11:49.756Z,88246.00
2023-04-29T06:12:49.747Z,88246.00
2023-04-29T06:13:49.728Z,88248.00
2023-04-29T06:14:49.709Z,88248.00
2023-04-29T06:15:49.733Z,88246.00
2023-04-29T06:16:49.681Z,88246.00
2023-04-29T06:17:49.738Z,88244.00
2023-04-29T06:18:49.689Z,88244.00
2023-04-29T06:19:49.688Z,88244.00
2023-04-29T06:20:49.645Z,88246.00
2023-04-29T06:21:49.641Z,88246.00
2023-04-29T06:22:49.632Z,88252.00
2023-04-29T06:23:49.625Z,88254.00
2023-04-29T06:24:49.613Z,88256.00
2023-04-29T06:25:51.600Z,88254.00
2023-04-29T06:26:49.648Z,88254.00
2023-04-29T06:27:49.581Z,88252.00
2023-04-29T06:28:49.566Z,88252.00
2023-04-29T06:29:49.645Z,88250.00
2023-04-29T06:30:49.525Z,88250.00
2023-04-29T06:31:49.561Z,88256.00
2023-04-29T06:32:49.563Z,88256.00
2023-04-29T06:33:49.486Z,88252.00
2023-04-29T06:34:49.469Z,88258.00
2023-04-29T06:35:49.456Z,88258.00
2023-04-29T06:36:49.423Z,88260.00
2023-04-29T06:37:49.426Z,88258.00
2023-04-29T06:38:49.405Z,88256.00
2023-04-29T06:39:49.398Z,88254.00
2023-04-29T06:40:49.359Z,88252.00
2023-04-29T06:41:49.342Z,88250.00
2023-04-29T06:42:49.343Z,88254.00
2023-04-29T06:43:49.331Z,88254.00
2023-04-29T06:44:49.303Z,88250.00
2023-04-29T06:45:49.284Z,88250.00
2023-04-29T06:46:49.289Z,88248.00
2023-04-29T06:47:49.299Z,88246.00
2023-04-29T06:48:49.237Z,88244.00
2023-04-29T06:49:49.225Z,88244.00
2023-04-29T06:50:49.214Z,88244.00
2023-04-29T06:51:49.202Z,88242.00
2023-04-29T06:52:49.202Z,88240.00
2023-04-29T06:53:49.181Z,88242.00
2023-04-29T06:54:49.164Z,88240.00
2023-04-29T06:55:49.167Z,88240.00
2023-04-29T06:56:49.126Z,88238.00
2023-04-29T06:57:49.126Z,88244.00
2023-04-29T06:58:49.099Z,88242.00
2023-04-29T06:59:49.085Z,88240.00
2023-04-29T07:00:49.100Z,88238.00
2023-04-29T07:01:49.928Z,88232.00
2023-04-29T07:02:49.197Z,88234.00
2023-04-29T07:03:49.425Z,88231.00
2023-04-29T07:04:49.112Z,88229.00
2023-04-29T07:05:48.968Z,88229.00
2023-04-29T07:06:48.943Z,88229.00
2023-04-29T07:07:48.939Z,88227.00
2023-04-29T07:08:48.917Z,88225.00
2023-04-29T07:09:48.896Z,88223.00
2023-04-29T07:10:48.889Z,88227.00
2023-04-29T07:11:48.860Z,88225.00
2023-04-29T07:12:48.843Z,88225.00
2023-04-29T07:13:48.839Z,88225.00
2023-04-29T07:14:48.815Z,88223.00
2023-04-29T07:15:48.810Z,88223.00
2023-04-29T07:16:48.800Z,88221.00
2023-04-29T07:17:48.819Z,88221.00
2023-04-29T07:18:48.738Z,88221.00
2023-04-29T07:19:48.718Z,88223.00
2023-04-29T07:20:48.702Z,88221.00
2023-04-29T07:21:48.687Z,88221.00
2023-04-29T07:22:48.670Z,88219.00
2023-04-29T07:23:48.650Z,88219.00
2023-04-29T07:24:48.628Z,88219.00
2023-04-29T07:25:48.634Z,88217.00
2023-04-29T07:26:48.618Z,88219.00
2023-04-29T07:27:48.597Z,88219.00
2023-04-29T07:28:48.593Z,88217.00
2023-04-29T07:29:48.557Z,88215.00
2023-04-29T07:30:48.540Z,88219.00
2023-04-29T07:31:48.525Z,88219.00
2023-04-29T07:32:48.587Z,88217.00
2023-04-29T07:33:48.502Z,88219.00
2023-04-29T07:34:48.494Z,88219.00
2023-04-29T07:35:48.465Z,88219.00
2023-04-29T07:36:48.474Z,88223.00
2023-04-29T07:37:48.456Z,88221.00
2023-04-29T07:38:48.435Z,88223.00
2023-04-29T07:39:48.439Z,88223.00
2023-04-29T07:40:48.476Z,88221.00
2023-04-29T07:41:48.532Z,88219.00
2023-04-29T07:42:48.560Z,88221.00
2023-04-29T07:43:48.645Z,88221.00
2023-04-29T07:44:48.675Z,88223.00
2023-04-29T07:45:48.755Z,88223.00
2023-04-29T07:46:48.831Z,88225.00
2023-04-29T07:47:48.920Z,88227.00
2023-04-29T07:48:48.890Z,88229.00
2023-04-29T07:49:48.935Z,88231.00
2023-04-29T07:50:48.997Z,88232.00
2023-04-29T07:51:49.027Z,88229.00
2023-04-29T07:52:49.078Z,88229.00
2023-04-29T07:53:49.116Z,88231.00
2023-04-29T07:54:49.142Z,88231.00
2023-04-29T07:55:49.160Z,88229.00
2023-04-29T07:56:49.207Z,88229.00
2023-04-29T07:57:49.250Z,88229.00
2023-04-29T07:58:49.270Z,88227.00
2023-04-29T07:59:49.314Z,88225.00
2023-04-29T08:00:49.428Z,88227.00
2023-04-29T08:01:49.411Z,88225.00
2023-04-29T08:02:49.519Z,88223.00
2023-04-29T08:03:49.727Z,88227.00
2023-04-29T08:04:49.891Z,88227.00
2023-04-29T08:05:49.691Z,88225.00
2023-04-29T08:06:49.686Z,88225.00
2023-04-29T08:07:49.703Z,88223.00
2023-04-29T08:08:49.770Z,88225.00
2023-04-29T08:09:49.833Z,88227.00
2023-04-29T08:10:49.849Z,88227.00
2023-04-29T08:11:49.899Z,88229.00
2023-04-29T08:12:49.951Z,88229.00
2023-04-29T08:13:49.998Z,88227.00
2023-04-29T08:14:50.091Z,88227.00
2023-04-29T08:15:50.274Z,88223.00
2023-04-29T08:16:50.142Z,88225.00
2023-04-29T08:17:50.265Z,88223.00
2023-04-29T08:18:50.253Z,88221.00
2023-04-29T08:19:50.322Z,88221.00
2023-04-29T08:20:50.327Z,88221.00
2023-04-29T08:21:50.392Z,88221.00
2023-04-29T08:22:50.438Z,88219.00
2023-04-29T08:23:50.524Z,88221.00
2023-04-29T08:24:50.770Z,88217.00
2023-04-29T08:25:50.573Z,88217.00
2023-04-29T08:26:50.630Z,88217.00
2023-04-29T08:27:50.678Z,88217.00
2023-04-29T08:28:50.709Z,88217.00
2023-04-29T08:29:50.781Z,88217.00
2023-04-29T08:30:50.811Z,88219.00
2023-04-29T08:31:50.892Z,88219.00
2023-04-29T08:32:50.953Z,88219.00
2023-04-29T08:33:50.948Z,88215.00
2023-04-29T08:34:51.180Z,88219.00
2023-04-29T08:35:51.037Z,88219.00
2023-04-29T08:36:51.080Z,88217.00
2023-04-29T08:37:51.126Z,88213.00
2023-04-29T08:38:51.176Z,88217.00
2023-04-29T08:39:51.230Z,88219.00
2023-04-29T08:40:51.239Z,88221.00
2023-04-29T08:41:51.323Z,88223.00
2023-04-29T08:42:51.368Z,88221.00
2023-04-29T08:43:51.386Z,88221.00
2023-04-29T08:44:51.698Z,88217.00
2023-04-29T08:45:51.502Z,88219.00
2023-04-29T08:46:51.556Z,88215.00
2023-04-29T08:47:51.675Z,88215.00
2023-04-29T08:48:51.639Z,88215.00
2023-04-29T08:49:51.662Z,88213.00
2023-04-29T08:50:51.718Z,88215.00
2023-04-29T08:51:51.792Z,88215.00
2023-04-29T08:52:51.799Z,88206.00
2023-04-29T08:53:51.775Z,88206.00
2023-04-29T08:54:51.831Z,88213.00
2023-04-29T08:55:51.764Z,88206.00
2023-04-29T08:56:51.790Z,88206.00
2023-04-29T08:57:51.801Z,88204.00
2023-04-29T08:58:51.676Z,88206.00
2023-04-29T08:59:51.662Z,88206.00
2023-04-29T09:00:51.675Z,88204.00
2023-04-29T09:01:51.630Z,88206.00
2023-04-29T09:02:51.713Z,88204.00
2023-04-29T09:03:51.740Z,88202.00
2023-04-29T09:04:51.857Z,88204.00
2023-04-29T09:05:51.549Z,88202.00
2023-04-29T09:06:51.528Z,88202.00
2023-04-29T09:07:51.560Z,88200.00
2023-04-29T09:08:51.519Z,88202.00
2023-04-29T09:09:51.515Z,88202.00
2023-04-29T09:10:51.493Z,88202.00
2023-04-29T09:11:51.484Z,88202.00
2023-04-29T09:12:51.461Z,88200.00
2023-04-29T09:13:51.457Z,88204.00
2023-04-29T09:14:51.522Z,88202.00
2023-04-29T09:15:51.430Z,88200.00
2023-04-29T09:16:51.493Z,88198.00
2023-04-29T09:17:51.516Z,88200.00
2023-04-29T09:18:51.528Z,88198.00
2023-04-29T09:19:51.562Z,88200.00
2023-04-29T09:20:51.604Z,88198.00
2023-04-29T09:21:51.637Z,88200.00
2023-04-29T09:22:51.671Z,88200.00
2023-04-29T09:23:51.722Z,88202.00
2023-04-29T09:24:51.881Z,88200.00
2023-04-29T09:25:51.773Z,88198.00
2023-04-29T09:26:51.868Z,88198.00
2023-04-29T09:27:51.863Z,88200.00
2023-04-29T09:28:51.885Z,88196.00
2023-04-29T09:29:51.926Z,88194.00
2023-04-29T09:30:51.952Z,88196.00
2023-04-29T09:31:52.030Z,88198.00
2023-04-29T09:32:52.078Z,88194.00
2023-04-29T09:33:52.049Z,88194.00
2023-04-29T09:34:52.366Z,88196.00
2023-04-29T09:35:52.100Z,88194.00
2023-04-29T09:36:52.132Z,88196.00
2023-04-29T09:37:52.173Z,88192.00
2023-04-29T09:38:52.187Z,88196.00
2023-04-29T09:39:52.233Z,88198.00
2023-04-29T09:40:59.601Z,88196.00
2023-04-29T09:41:53.234Z,88198.00
2023-04-29T09:42:52.228Z,88196.00
2023-04-29T09:43:52.199Z,88198.00
2023-04-29T09:44:52.325Z,88198.00
2023-04-29T09:45:52.169Z,88196.00
2023-04-29T09:46:52.145Z,88198.00
2023-04-29T09:47:52.162Z,88200.00
2023-04-29T09:48:52.129Z,88196.00
2023-04-29T09:49:52.104Z,88194.00
2023-04-29T09:50:52.091Z,88196.00
2023-04-29T09:51:52.113Z,88196.00
2023-04-29T09:52:52.068Z,88196.00
2023-04-29T09:53:52.035Z,88198.00
2023-04-29T09:54:52.139Z,88196.00
2023-04-29T09:55:52.036Z,88194.00
2023-04-29T09:56:52.016Z,88196.00
2023-04-29T09:57:52.004Z,88196.00
2023-04-29T09:58:52.003Z,88200.00
2023-04-29T09:59:51.983Z,88200.00
2023-04-29T10:00:51.972Z,88200.00
2023-04-29T10:01:51.970Z,88202.00
2023-04-29T10:02:52.050Z,88202.00
2023-04-29T10:03:51.979Z,88198.00
2023-04-29T10:04:52.133Z,88196.00
2023-04-29T10:05:51.906Z,88194.00
2023-04-29T10:06:51.909Z,88194.00
2023-04-29T10:07:51.877Z,88194.00
2023-04-29T10:08:51.862Z,88192.00
2023-04-29T10:09:51.869Z,88196.00
2023-04-29T10:10:51.847Z,88194.00
2023-04-29T10:11:51.814Z,88194.00
2023-04-29T10:12:51.852Z,88198.00
2023-04-29T10:13:51.888Z,88198.00
2023-04-29T10:14:52.250Z,88196.00
2023-04-29T10:15:51.949Z,88198.00
2023-04-29T10:16:51.909Z,88196.00
2023-04-29T10:17:51.893Z,88194.00
2023-04-29T10:18:51.914Z,88198.00
2023-04-29T10:19:51.858Z,88200.00
2023-04-29T10:20:51.827Z,88198.00
2023-04-29T10:21:51.814Z,88198.00
2023-04-29T10:22:51.798Z,88194.00
2023-04-29T10:23:51.766Z,88192.00
2023-04-29T10:24:51.878Z,88188.00
2023-04-29T10:25:51.732Z,88188.00
2023-04-29T10:26:51.707Z,88192.00
2023-04-29T10:27:51.704Z,88188.00
2023-04-29T10:28:51.682Z,88190.00
2023-04-29T10:29:51.655Z,88190.00
2023-04-29T10:30:51.643Z,88190.00
2023-04-29T10:31:51.763Z,88190.00
2023-04-29T10:32:52.690Z,88190.00
2023-04-29T10:33:51.626Z,88184.00
2023-04-29T10:34:51.804Z,88182.00
2023-04-29T10:35:51.593Z,88184.00
2023-04-29T10:36:51.583Z,88184.00
2023-04-29T10:37:51.579Z,88182.00
2023-04-29T10:38:51.549Z,88182.00
2023-04-29T10:39:51.536Z,88178.00
2023-04-29T10:40:51.521Z,88178.00
2023-04-29T10:41:51.496Z,88176.00
2023-04-29T10:42:51.481Z,88178.00
2023-04-29T10:43:51.496Z,88180.00
2023-04-29T10:44:51.718Z,88174.00
2023-04-29T10:45:51.537Z,88172.00
2023-04-29T10:46:51.600Z,88174.00
2023-04-29T10:47:51.619Z,88167.00
2023-04-29T10:48:51.611Z,88170.00
2023-04-29T10:49:51.631Z,88167.00
2023-04-29T10:50:51.654Z,88168.00
2023-04-29T10:51:51.668Z,88167.00
2023-04-29T10:52:51.686Z,88167.00
2023-04-29T10:53:51.703Z,88168.00
2023-04-29T10:54:51.942Z,88165.00
2023-04-29T10:55:51.747Z,88165.00
2023-04-29T10:56:51.771Z,88163.00
2023-04-29T10:57:51.776Z,88161.00
2023-04-29T10:58:51.788Z,88159.00
2023-04-29T10:59:51.826Z,88159.00
2023-04-29T11:00:51.857Z,88161.00
2023-04-29T11:01:51.872Z,88159.00
2023-04-29T11:02:51.940Z,88161.00
2023-04-29T11:03:52.064Z,88159.00
2023-04-29T11:04:52.163Z,88159.00
2023-04-29T11:05:51.900Z,88163.00
2023-04-29T11:06:51.992Z,88163.00
2023-04-29T11:07:52.022Z,88157.00
2023-04-29T11:08:51.955Z,88159.00
2023-04-29T11:09:52.095Z,88159.00
2023-04-29T11:10:51.988Z,88161.00
2023-04-29T11:11:52.019Z,88159.00
2023-04-29T11:12:52.025Z,88157.00
2023-04-29T11:13:52.035Z,88157.00
2023-04-29T11:14:52.266Z,88155.00
2023-04-29T11:15:52.072Z,88157.00
2023-04-29T11:16:52.192Z,88159.00
2023-04-29T11:17:52.124Z,88155.00
2023-04-29T11:18:52.145Z,88157.00
2023-04-29T11:19:52.280Z,88155.00
2023-04-29T11:20:52.143Z,88155.00
2023-04-29T11:21:52.160Z,88153.00
2023-04-29T11:22:52.208Z,88155.00
2023-04-29T11:23:52.211Z,88153.00
2023-04-29T11:24:52.542Z,88155.00
2023-04-29T11:25:52.211Z,88153.00
2023-04-29T11:26:52.229Z,88153.00
2023-04-29T11:27:52.250Z,88149.00
2023-04-29T11:28:52.272Z,88149.00
2023-04-29T11:29:52.266Z,88149.00
2023-04-29T11:30:52.251Z,88149.00
2023-04-29T11:31:52.293Z,88147.00
2023-04-29T11:32:52.279Z,88143.00
2023-04-29T11:33:52.191Z,88141.00
2023-04-29T11:34:52.369Z,88139.00
2023-04-29T11:35:52.166Z,88139.00
2023-04-29T11:36:52.150Z,88137.00
2023-04-29T11:37:52.131Z,88137.00
2023-04-29T11:38:52.138Z,88137.00
2023-04-29T11:39:52.119Z,88137.00
2023-04-29T11:40:52.112Z,88135.00
2023-04-29T11:41:52.701Z,88135.00
2023-04-29T11:42:52.096Z,88137.00
2023-04-29T11:43:52.044Z,88137.00
2023-04-29T11:44:52.333Z,88137.00